Time;durP1;ratioP1;P1;durP2;ratioP2;P2;SDS_P1;SDS_P2;PMS_P1;PMS_P2;Temp;Humidity;BMP_temperature;BMP_pressure;BME280_temperature;BME280_humidity;BME280_pressure;Samples;Min_cycle;Max_cycle;Signal;HPM_P1;HPM_P2
2023/08/30 00:01:11;;;;;;;9.27;5.57;;;;;;;11.54;97.29;100794.41;5009579;28;20040;-69
2023/08/30 00:03:36;;;;;;;9.75;6.05;;;;;;;11.52;97.43;100788.22;5008676;28;20103;-69
2023/08/30 00:06:04;;;;;;;7.28;5.55;;;;;;;11.48;97.36;100789.44;5008448;28;20442;-69
2023/08/30 00:08:30;;;;;;;10.20;6.22;;;;;;;11.45;97.02;100784.22;5008325;28;20049;-69
2023/08/30 00:10:58;;;;;;;11.38;6.20;;;;;;;11.43;97.08;100778.03;5026961;28;20557;-69
2023/08/30 00:13:24;;;;;;;9.43;5.60;;;;;;;11.41;97.05;100774.53;5025353;28;20041;-70
2023/08/30 00:15:49;;;;;;;10.43;5.82;;;;;;;11.40;97.08;100780.97;5015000;28;20439;-68
2023/08/30 00:18:15;;;;;;;8.77;5.80;;;;;;;11.40;97.43;100783.72;5024622;28;20057;-68
2023/08/30 00:20:41;;;;;;;12.70;6.78;;;;;;;11.36;97.67;100769.44;5019830;28;20113;-68
2023/08/30 00:23:06;;;;;;;9.70;6.20;;;;;;;11.35;97.42;100773.16;5018642;28;20078;-69
2023/08/30 00:25:31;;;;;;;12.05;7.30;;;;;;;11.32;97.74;100775.25;5027005;28;20211;-68
2023/08/30 00:27:57;;;;;;;10.48;6.78;;;;;;;11.30;98.00;100780.81;5020515;28;20591;-69
2023/08/30 00:30:22;;;;;;;12.80;6.63;;;;;;;11.29;97.57;100775.50;5025472;28;20814;-69
2023/08/30 00:32:47;;;;;;;11.57;6.63;;;;;;;11.29;98.02;100775.50;5008308;28;20026;-69
2023/08/30 00:35:13;;;;;;;9.68;6.05;;;;;;;11.27;97.63;100769.28;5005825;28;20128;-69
2023/08/30 00:37:40;;;;;;;10.40;6.55;;;;;;;11.24;97.60;100768.56;5006998;28;20061;-70
2023/08/30 00:40:06;;;;;;;10.02;6.88;;;;;;;11.24;97.33;100768.56;5008436;28;20115;-69
2023/08/30 00:42:31;;;;;;;10.07;6.47;;;;;;;11.23;97.50;100761.34;5008422;28;20504;-69
2023/08/30 00:44:57;;;;;;;11.75;6.80;;;;;;;11.20;97.91;100760.72;5009737;28;20026;-69
2023/08/30 00:47:23;;;;;;;11.38;7.55;;;;;;;11.19;97.75;100757.16;5013593;28;20548;-69
2023/08/30 00:49:49;;;;;;;19.92;8.02;;;;;;;11.13;97.81;100752.16;5009711;28;20033;-70
2023/08/30 00:52:16;;;;;;;11.93;7.03;;;;;;;11.15;97.74;100750.19;5009781;28;20043;-71
2023/08/30 00:54:42;;;;;;;11.18;6.97;;;;;;;11.15;97.79;100750.19;5009738;28;20474;-70
2023/08/30 00:57:08;;;;;;;12.43;7.38;;;;;;;11.14;97.45;100747.56;5009494;28;20040;-70
2023/08/30 00:59:33;;;;;;;12.77;7.43;;;;;;;11.11;98.11;100745.09;5008961;28;20046;-69
2023/08/30 01:02:00;;;;;;;12.77;6.88;;;;;;;11.07;97.47;100738.16;5017694;28;20120;-69
2023/08/30 01:04:27;;;;;;;9.70;6.22;;;;;;;11.05;97.54;100738.28;5010711;28;20469;-70
2023/08/30 01:06:52;;;;;;;11.10;6.45;;;;;;;11.02;98.13;100734.91;5020621;28;20045;-71
2023/08/30 01:09:19;;;;;;;13.15;6.80;;;;;;;10.96;97.65;100742.56;5010448;28;20107;-70
2023/08/30 01:12:03;;;;;;;9.55;6.65;;;;;;;10.94;98.25;100741.78;5009678;28;20091;-69
2023/08/30 01:14:34;;;;;;;10.43;6.45;;;;;;;10.91;97.91;100738.44;5008591;28;20128;-70
2023/08/30 01:17:00;;;;;;;9.85;6.43;;;;;;;10.88;98.04;100742.25;5018191;28;20037;-69
2023/08/30 01:19:46;;;;;;;12.15;7.47;;;;;;;10.87;97.94;100737.81;5023525;28;20044;-70
2023/08/30 01:22:29;;;;;;;9.65;5.72;;;;;;;10.80;98.22;100733.81;5025127;28;20081;-70
2023/08/30 01:25:27;;;;;;;8.18;5.78;;;;;;;10.77;97.54;100731.31;5009753;28;20034;-69
2023/08/30 01:27:54;;;;;;;11.50;6.72;;;;;;;10.73;97.51;100733.41;5028092;28;20109;-69
2023/08/30 01:30:21;;;;;;;8.48;6.00;;;;;;;10.69;97.29;100729.16;5008648;28;20049;-69
2023/08/30 01:32:48;;;;;;;8.70;5.65;;;;;;;10.68;97.91;100723.84;5022944;28;20385;-70
2023/08/30 01:35:17;;;;;;;11.00;6.45;;;;;;;10.65;97.60;100729.50;5025008;28;20436;-69
2023/08/30 01:37:45;;;;;;;10.50;6.15;;;;;;;10.60;98.31;100715.38;5027829;28;20489;-70
2023/08/30 01:40:11;;;;;;;10.27;5.55;;;;;;;10.58;98.13;100725.50;5028054;28;20132;-70
2023/08/30 01:42:39;;;;;;;10.88;6.78;;;;;;;10.58;98.52;100725.50;5017719;28;20109;-70
2023/08/30 01:45:08;;;;;;;10.85;7.30;;;;;;;10.57;99.43;100727.34;5009723;28;20041;-70
2023/08/30 01:47:35;;;;;;;11.13;7.07;;;;;;;10.55;99.40;100726.63;5021564;28;20068;-70
2023/08/30 01:50:03;;;;;;;15.18;7.88;;;;;;;10.54;100.00;100734.88;5018131;28;20864;-70
2023/08/30 01:52:30;;;;;;;10.63;6.95;;;;;;;10.53;99.39;100723.13;5007888;28;20103;-70
2023/08/30 01:54:55;;;;;;;16.30;8.90;;;;;;;10.52;99.72;100724.13;5009515;28;20144;-70
2023/08/30 01:57:20;;;;;;;15.88;7.65;;;;;;;10.52;99.50;100724.13;5008439;28;20137;-70
2023/08/30 01:59:46;;;;;;;16.88;8.02;;;;;;;10.50;99.68;100723.38;5008700;28;20077;-71
2023/08/30 02:02:11;;;;;;;9.63;6.80;;;;;;;10.53;98.95;100717.69;5007189;28;20061;-70
2023/08/30 02:04:36;;;;;;;12.48;7.53;;;;;;;10.52;99.24;100720.53;5006663;28;20510;-70
2023/08/30 02:07:04;;;;;;;12.82;7.95;;;;;;;10.50;99.04;100725.22;5015617;28;20088;-70
2023/08/30 02:09:41;;;;;;;11.82;7.68;;;;;;;10.49;99.23;100727.03;5007018;28;20382;-69
2023/08/30 02:12:16;;;;;;;11.25;7.20;;;;;;;10.50;99.12;100730.66;5008586;28;20497;-71
2023/08/30 02:14:47;;;;;;;10.88;6.75;;;;;;;10.48;98.80;100726.19;5009029;28;20030;-71
2023/08/30 02:17:15;;;;;;;11.77;7.00;;;;;;;10.45;98.98;100715.56;4998821;28;20033;-72
2023/08/30 02:19:44;;;;;;;12.82;7.32;;;;;;;10.44;99.04;100713.81;5014268;28;20552;-70
2023/08/30 02:22:10;;;;;;;11.00;6.95;;;;;;;10.40;99.15;100709.59;5028661;28;20037;-70
2023/08/30 02:24:35;;;;;;;10.60;6.70;;;;;;;10.40;98.76;100709.59;5014369;28;20057;-70
2023/08/30 02:27:01;;;;;;;11.60;7.28;;;;;;;10.40;99.21;100711.44;5007869;28;20069;-70
2023/08/30 02:29:26;;;;;;;11.23;6.85;;;;;;;10.37;99.08;100703.50;5027138;28;20083;-70
2023/08/30 02:31:51;;;;;;;11.98;7.95;;;;;;;10.34;99.48;100701.84;5018283;28;20044;-71
2023/08/30 02:34:20;;;;;;;10.43;7.20;;;;;;;10.33;99.38;100696.53;5006870;28;20121;-71
2023/08/30 02:36:46;;;;;;;10.10;6.75;;;;;;;10.30;100.00;100697.63;5007376;28;20453;-70
2023/08/30 02:39:13;;;;;;;10.23;6.20;;;;;;;10.29;99.68;100692.31;5007387;28;20041;-70
2023/08/30 02:41:40;;;;;;;12.27;7.25;;;;;;;10.28;99.90;100691.44;5008477;28;20794;-70
2023/08/30 02:44:05;;;;;;;13.40;7.78;;;;;;;10.28;100.00;100690.59;5007990;28;20045;-70
2023/08/30 02:46:30;;;;;;;11.75;7.28;;;;;;;10.29;100.00;100689.59;5007981;28;20025;-70
2023/08/30 02:48:56;;;;;;;14.65;7.93;;;;;;;10.32;100.00;100692.09;5007370;28;20037;-71
2023/08/30 02:51:22;;;;;;;11.50;7.43;;;;;;;10.34;100.00;100685.53;5008240;28;20112;-71
2023/08/30 02:53:48;;;;;;;14.43;7.43;;;;;;;10.35;100.00;100690.03;5007516;28;20172;-71
2023/08/30 02:56:13;;;;;;;11.10;7.50;;;;;;;10.35;100.00;100687.31;5006566;28;20501;-70
2023/08/30 02:58:39;;;;;;;13.30;7.93;;;;;;;10.36;100.00;100680.00;5006633;28;20026;-71
2023/08/30 03:01:05;;;;;;;10.68;6.60;;;;;;;10.35;100.00;100679.16;5005464;28;20531;-70
2023/08/30 03:03:30;;;;;;;13.65;7.40;;;;;;;10.36;100.00;100677.28;5022539;28;20033;-71
2023/08/30 03:05:56;;;;;;;13.52;7.72;;;;;;;10.38;100.00;100669.88;5006834;28;20034;-70
2023/08/30 03:08:22;;;;;;;12.57;7.47;;;;;;;10.42;100.00;100672.25;5006756;28;20140;-71
2023/08/30 03:10:48;;;;;;;10.20;7.03;;;;;;;10.44;100.00;100675.75;5023223;28;20560;-70
2023/08/30 03:13:13;;;;;;;15.15;7.75;;;;;;;10.45;100.00;100672.03;5006837;28;20109;-71
2023/08/30 03:15:38;;;;;;;13.20;8.07;;;;;;;10.50;100.00;100676.25;5006156;28;20121;-70
2023/08/30 03:18:04;;;;;;;12.13;7.68;;;;;;;10.53;100.00;100676.00;5005815;28;20100;-71
2023/08/30 03:20:29;;;;;;;14.35;7.63;;;;;;;10.56;100.00;100668.50;5022956;28;20040;-70
2023/08/30 03:22:58;;;;;;;12.48;7.97;;;;;;;10.58;100.00;100669.25;5006391;28;20581;-71
2023/08/30 03:25:23;;;;;;;13.05;8.23;;;;;;;10.62;100.00;100670.75;5006719;28;20038;-70
2023/08/30 03:27:48;;;;;;;12.60;7.88;;;;;;;10.63;100.00;100661.63;5011779;28;20382;-71
2023/08/30 03:30:15;;;;;;;13.82;7.90;;;;;;;10.66;100.00;100655.94;5022424;28;20044;-71
2023/08/30 03:32:41;;;;;;;12.43;8.13;;;;;;;10.69;100.00;100650.28;5035915;28;20174;-70
2023/08/30 03:35:08;;;;;;;11.75;8.00;;;;;;;10.71;100.00;100650.13;5016023;28;20036;-71
2023/08/30 03:37:33;;;;;;;15.13;8.75;;;;;;;10.74;100.00;100649.91;5007795;28;20388;-71
2023/08/30 03:40:00;;;;;;;15.68;9.07;;;;;;;10.76;100.00;100647.06;5006308;28;20029;-71
2023/08/30 03:42:25;;;;;;;12.05;8.40;;;;;;;10.75;100.00;100634.47;5006402;28;20448;-71
2023/08/30 03:44:51;;;;;;;15.05;8.88;;;;;;;10.79;100.00;100638.69;5016637;28;20048;-71
2023/08/30 03:47:17;;;;;;;20.73;10.00;;;;;;;10.82;100.00;100624.81;5014819;28;20085;-71
2023/08/30 03:49:44;;;;;;;14.45;9.52;;;;;;;10.83;100.00;100611.13;5012821;28;20116;-71
2023/08/30 03:52:09;;;;;;;18.75;9.60;;;;;;;10.84;100.00;100610.13;5011709;28;20445;-71
2023/08/30 03:54:34;;;;;;;15.27;9.73;;;;;;;10.84;100.00;100601.97;5007198;28;20072;-70
2023/08/30 03:57:00;;;;;;;13.30;9.68;;;;;;;10.86;100.00;100597.25;5007320;28;20506;-71
2023/08/30 03:59:27;;;;;;;16.27;8.90;;;;;;;10.86;100.00;100590.94;5007796;28;20046;-71
2023/08/30 04:01:52;;;;;;;13.40;9.05;;;;;;;10.87;100.00;100592.69;5017124;28;20034;-70
2023/08/30 04:04:18;;;;;;;15.35;8.48;;;;;;;10.90;100.00;100581.56;5008175;28;20512;-70
2023/08/30 04:06:43;;;;;;;13.90;9.13;;;;;;;10.93;100.00;100581.34;5025924;28;20021;-71
2023/08/30 04:09:10;;;;;;;14.85;8.73;;;;;;;10.94;100.00;100572.16;5014005;28;20048;-70
2023/08/30 04:11:35;;;;;;;16.75;9.90;;;;;;;10.95;100.00;100573.91;5008138;28;20108;-71
2023/08/30 04:14:02;;;;;;;17.90;9.43;;;;;;;10.94;100.00;100580.34;5011037;28;20184;-70
2023/08/30 04:16:27;;;;;;;17.90;9.52;;;;;;;10.90;100.00;100579.69;5010717;28;20021;-70
2023/08/30 04:18:53;;;;;;;16.67;9.30;;;;;;;10.87;100.00;100590.84;5008902;28;20042;-72
2023/08/30 04:21:19;;;;;;;12.18;8.25;;;;;;;10.85;100.00;100581.91;5026372;28;20049;-70
2023/08/30 04:23:44;;;;;;;12.65;8.73;;;;;;;10.82;100.00;100575.84;5019238;28;20037;-70
2023/08/30 04:26:10;;;;;;;15.45;9.27;;;;;;;10.78;100.00;100575.22;5029513;28;20041;-71
2023/08/30 04:28:35;;;;;;;15.68;9.38;;;;;;;10.81;100.00;100579.56;5029242;28;20556;-71
2023/08/30 04:31:01;;;;;;;15.43;10.20;;;;;;;10.81;100.00;100576.84;5021471;28;20029;-72
2023/08/30 04:33:26;;;;;;;15.02;9.50;;;;;;;10.83;100.00;100575.75;5010150;28;20030;-71
2023/08/30 04:35:52;;;;;;;13.73;8.90;;;;;;;10.88;100.00;100570.81;5010765;28;20041;-72
2023/08/30 04:38:19;;;;;;;16.85;9.90;;;;;;;10.92;100.00;100574.16;5011408;28;20116;-71
2023/08/30 04:40:45;;;;;;;13.80;8.48;;;;;;;10.94;100.00;100569.44;5009103;28;20025;-71
2023/08/30 04:43:13;;;;;;;13.98;9.23;;;;;;;10.99;100.00;100568.09;5009175;28;20037;-71
2023/08/30 04:45:39;;;;;;;15.73;9.13;;;;;;;11.02;100.00;100560.69;5008962;28;20034;-71
2023/08/30 04:48:06;;;;;;;14.82;9.90;;;;;;;11.10;100.00;100570.00;5008470;28;20501;-71
2023/08/30 04:50:31;;;;;;;16.60;9.80;;;;;;;11.14;100.00;100565.16;5008980;28;20034;-71
2023/08/30 04:52:57;;;;;;;17.83;9.63;;;;;;;11.19;100.00;100554.75;5009374;28;20561;-71
2023/08/30 04:55:28;;;;;;;17.30;10.43;;;;;;;11.22;100.00;100559.97;5009186;28;20134;-72
2023/08/30 04:57:54;;;;;;;16.05;10.68;;;;;;;11.26;100.00;100547.84;5008637;28;20117;-71
2023/08/30 05:00:20;;;;;;;20.00;10.15;;;;;;;11.31;100.00;100552.91;5025670;28;20140;-71
2023/08/30 05:02:46;;;;;;;23.42;11.45;;;;;;;11.34;100.00;100542.66;5026724;28;20528;-71
2023/08/30 05:05:13;;;;;;;19.05;10.20;;;;;;;11.36;100.00;100537.94;5018205;28;20042;-72
2023/08/30 05:07:38;;;;;;;17.33;9.82;;;;;;;11.41;100.00;100540.28;5009065;28;20137;-71
2023/08/30 05:10:06;;;;;;;14.70;10.70;;;;;;;11.46;100.00;100548.94;5015641;28;20408;-71
2023/08/30 05:12:32;;;;;;;17.40;10.80;;;;;;;11.49;100.00;100535.09;5028154;28;20071;-72
2023/08/30 05:14:58;;;;;;;23.17;11.02;;;;;;;11.54;100.00;100538.31;5025474;28;20123;-71
2023/08/30 05:17:28;;;;;;;16.67;10.82;;;;;;;11.58;100.00;100531.63;5017839;28;20052;-71
2023/08/30 05:19:54;;;;;;;17.80;11.15;;;;;;;11.61;100.00;100522.31;5020248;28;20026;-71
2023/08/30 05:22:19;;;;;;;18.90;10.45;;;;;;;11.64;100.00;100531.09;5024670;28;20036;-71
2023/08/30 05:24:44;;;;;;;18.30;11.55;;;;;;;11.67;100.00;100524.56;5008530;28;20599;-71
2023/08/30 05:27:11;;;;;;;20.95;11.95;;;;;;;11.72;100.00;100531.34;5008095;28;20425;-70
2023/08/30 05:29:38;;;;;;;21.73;11.07;;;;;;;11.78;100.00;100520.94;5007868;28;20036;-72
2023/08/30 05:32:04;;;;;;;16.05;10.52;;;;;;;11.84;100.00;100529.50;5007672;28;20046;-71
2023/08/30 05:34:53;;;;;;;24.23;12.27;;;;;;;11.91;100.00;100518.97;5007956;28;20053;-71
2023/08/30 05:37:30;;;;;;;22.80;11.50;;;;;;;11.96;100.00;100524.88;5008291;28;20171;-71
2023/08/30 05:40:01;;;;;;;19.08;11.65;;;;;;;12.02;100.00;100518.91;5027246;28;20464;-71
2023/08/30 05:42:26;;;;;;;20.00;11.80;;;;;;;12.07;100.00;100522.13;5024623;28;20148;-70
2023/08/30 05:44:52;;;;;;;17.45;10.68;;;;;;;12.12;100.00;100514.41;5013575;28;20041;-72
2023/08/30 05:47:18;;;;;;;18.15;12.50;;;;;;;12.19;100.00;100514.78;5007354;28;20129;-71
2023/08/30 05:49:44;;;;;;;18.88;12.20;;;;;;;12.25;100.00;100508.78;5009087;28;20057;-71
2023/08/30 05:52:09;;;;;;;19.55;12.27;;;;;;;12.32;100.00;100496.38;5023734;28;20456;-71
2023/08/30 05:54:35;;;;;;;19.48;12.05;;;;;;;12.37;100.00;100494.13;5008128;28;20030;-70
2023/08/30 05:57:01;;;;;;;17.88;10.65;;;;;;;12.47;100.00;100495.06;5004968;28;20069;-72
2023/08/30 05:59:27;;;;;;;17.45;12.00;;;;;;;12.55;100.00;100499.88;5009908;28;20046;-71
2023/08/30 06:01:53;;;;;;;19.95;12.20;;;;;;;12.60;100.00;100500.34;5018046;28;20091;-71
2023/08/30 06:04:18;;;;;;;21.73;11.93;;;;;;;12.65;100.00;100497.22;5013251;28;20080;-71
2023/08/30 06:06:44;;;;;;;21.67;11.15;;;;;;;12.71;100.00;100502.97;5021740;28;20511;-71
2023/08/30 06:09:09;;;;;;;15.30;10.88;;;;;;;12.77;100.00;100498.84;5021405;28;20037;-72
2023/08/30 06:11:34;;;;;;;22.38;12.32;;;;;;;12.82;100.00;100493.84;5028399;28;20491;-71
2023/08/30 06:14:00;;;;;;;24.35;11.60;;;;;;;12.85;100.00;100496.31;5018955;28;20466;-70
2023/08/30 06:16:25;;;;;;;20.98;11.85;;;;;;;12.90;100.00;100496.78;5011669;28;20029;-71
2023/08/30 06:18:50;;;;;;;19.85;11.38;;;;;;;12.95;100.00;100486.31;5008707;28;20105;-70
2023/08/30 06:21:16;;;;;;;18.77;12.38;;;;;;;12.97;100.00;100494.38;5008665;28;20038;-71
2023/08/30 06:23:41;;;;;;;20.02;11.27;;;;;;;12.99;100.00;100495.97;5007605;28;20501;-71
2023/08/30 06:26:07;;;;;;;17.20;11.25;;;;;;;13.06;100.00;100492.72;5026847;28;20048;-71
2023/08/30 06:28:32;;;;;;;16.08;11.20;;;;;;;13.08;100.00;100488.84;5028478;28;20032;-71
2023/08/30 06:30:58;;;;;;;21.02;11.50;;;;;;;13.10;100.00;100485.94;5014995;28;20697;-71
2023/08/30 06:33:24;;;;;;;16.20;10.98;;;;;;;13.11;100.00;100493.19;5022143;28;20040;-71
2023/08/30 06:35:50;;;;;;;18.60;10.48;;;;;;;13.12;100.00;100493.03;5019236;28;20088;-71
2023/08/30 06:38:16;;;;;;;19.80;12.00;;;;;;;13.14;100.00;100493.75;5026084;28;20025;-71
2023/08/30 06:40:49;;;;;;;18.63;10.73;;;;;;;13.18;100.00;100502.53;5028681;28;20033;-71
2023/08/30 06:43:14;;;;;;;16.70;10.90;;;;;;;13.19;100.00;100510.59;5022888;28;20026;-71
2023/08/30 06:45:41;;;;;;;14.40;10.23;;;;;;;13.20;100.00;100509.59;5008618;28;20087;-71
2023/08/30 06:48:07;;;;;;;22.02;11.40;;;;;;;13.21;100.00;100505.88;5008462;28;20061;-72
2023/08/30 06:50:33;;;;;;;14.55;10.07;;;;;;;13.22;100.00;100509.50;5023154;28;20038;-72
2023/08/30 06:52:58;;;;;;;17.60;10.15;;;;;;;13.21;100.00;100507.72;5008598;28;20041;-72
2023/08/30 06:55:24;;;;;;;17.55;10.13;;;;;;;13.20;100.00;100515.06;5008259;28;20454;-73
2023/08/30 06:57:49;;;;;;;18.15;11.23;;;;;;;13.17;100.00;100507.13;5007808;28;20073;-73
2023/08/30 07:00:16;;;;;;;16.88;10.13;;;;;;;13.14;100.00;100504.66;5007691;28;20042;-73
2023/08/30 07:02:44;;;;;;;19.75;10.27;;;;;;;13.13;100.00;100510.28;5023404;28;20557;-73
2023/08/30 07:05:14;;;;;;;19.92;10.55;;;;;;;13.10;100.00;100500.47;5022833;28;20452;-72
2023/08/30 07:07:40;;;;;;;20.42;11.30;;;;;;;13.05;100.00;100486.34;5023884;28;20719;-72
2023/08/30 07:10:06;;;;;;;19.77;11.40;;;;;;;12.98;100.00;100482.47;5008253;28;20057;-72
2023/08/30 07:12:31;;;;;;;19.17;10.80;;;;;;;12.94;100.00;100473.66;5008306;28;20393;-72
2023/08/30 07:14:56;;;;;;;17.77;10.60;;;;;;;12.91;100.00;100470.34;5007814;28;20537;-72
2023/08/30 07:17:22;;;;;;;17.48;11.88;;;;;;;12.91;100.00;100462.16;5017259;28;20033;-72
2023/08/30 07:19:48;;;;;;;17.40;10.98;;;;;;;12.90;100.00;100471.34;5019331;28;20116;-72
2023/08/30 07:22:16;;;;;;;18.33;11.45;;;;;;;12.88;100.00;100462.44;5007912;28;20080;-72
2023/08/30 07:24:42;;;;;;;20.65;10.57;;;;;;;12.88;100.00;100452.38;5007522;28;20567;-73
2023/08/30 07:27:08;;;;;;;19.00;11.25;;;;;;;12.85;100.00;100449.91;5007588;28;20482;-73
2023/08/30 07:29:33;;;;;;;20.05;10.65;;;;;;;12.83;100.00;100457.38;5007904;28;20092;-72
2023/08/30 07:31:59;;;;;;;16.80;10.82;;;;;;;12.86;100.00;100457.09;5006094;28;20030;-73
2023/08/30 07:34:24;;;;;;;16.95;9.63;;;;;;;12.87;100.00;100453.38;5021882;28;20105;-72
2023/08/30 07:36:49;;;;;;;15.52;9.88;;;;;;;12.86;100.00;100448.03;5008297;28;20042;-73
2023/08/30 07:39:15;;;;;;;17.98;10.18;;;;;;;12.86;100.00;100443.44;5006322;28;20411;-73
2023/08/30 07:41:40;;;;;;;14.95;9.73;;;;;;;12.88;100.00;100436.00;5007808;28;20478;-72
2023/08/30 07:44:05;;;;;;;15.93;9.90;;;;;;;12.93;100.00;100435.59;5007346;28;20037;-73
2023/08/30 07:46:31;;;;;;;15.60;9.73;;;;;;;12.96;100.00;100441.66;5009158;28;20045;-73
2023/08/30 07:48:56;;;;;;;13.40;8.68;;;;;;;12.98;100.00;100438.78;5010744;28;20113;-72
2023/08/30 07:51:21;;;;;;;13.60;8.30;;;;;;;12.99;100.00;100437.75;5011452;28;20088;-73
2023/08/30 07:53:47;;;;;;;16.92;8.38;;;;;;;13.02;100.00;100432.91;5025852;28;20587;-72
2023/08/30 07:56:12;;;;;;;11.77;7.70;;;;;;;13.06;100.00;100429.91;5028925;28;20735;-72
2023/08/30 07:58:38;;;;;;;16.23;8.63;;;;;;;13.12;100.00;100429.34;5011468;28;20052;-73
2023/08/30 08:01:03;;;;;;;13.20;7.85;;;;;;;13.18;100.00;100436.97;5010781;28;20405;-72
2023/08/30 08:03:28;;;;;;;14.35;7.70;;;;;;;13.20;100.00;100435.84;5025095;28;20068;-72
2023/08/30 08:05:54;;;;;;;15.23;7.85;;;;;;;13.21;100.00;100432.13;5010933;28;20133;-71
2023/08/30 08:08:19;;;;;;;13.13;7.57;;;;;;;13.24;100.00;100436.44;5011945;28;20445;-71
2023/08/30 08:10:45;;;;;;;13.32;7.60;;;;;;;13.24;100.00;100434.63;5009860;28;20030;-72
2023/08/30 08:13:10;;;;;;;9.63;6.55;;;;;;;13.27;100.00;100438.91;5011314;28;20034;-71
2023/08/30 08:15:35;;;;;;;10.15;7.13;;;;;;;13.26;100.00;100437.19;5010508;28;20371;-71
2023/08/30 08:18:02;;;;;;;11.85;6.68;;;;;;;13.25;100.00;100438.19;5009533;28;20025;-72
2023/08/30 08:20:29;;;;;;;11.00;5.97;;;;;;;13.24;100.00;100440.06;5010063;28;20045;-71
2023/08/30 08:22:54;;;;;;;10.52;6.00;;;;;;;13.20;100.00;100438.59;5010986;28;20436;-71
2023/08/30 08:25:21;;;;;;;10.35;5.95;;;;;;;13.20;100.00;100444.03;5011367;28;20038;-71
2023/08/30 08:27:47;;;;;;;7.80;5.75;;;;;;;13.22;100.00;100433.00;5018292;28;20096;-71
2023/08/30 08:30:13;;;;;;;8.55;5.70;;;;;;;13.25;100.00;100436.34;5029960;28;20560;-72
2023/08/30 08:32:38;;;;;;;8.55;5.65;;;;;;;13.27;100.00;100436.19;5009297;28;20030;-72
2023/08/30 08:35:04;;;;;;;9.98;5.63;;;;;;;13.31;100.00;100434.91;5009738;28;20526;-72
2023/08/30 08:37:31;;;;;;;9.45;5.32;;;;;;;13.35;100.00;100440.97;5010414;28;20506;-72
2023/08/30 08:39:56;;;;;;;6.05;4.43;;;;;;;13.38;100.00;100437.94;5010798;28;20421;-72
2023/08/30 08:42:21;;;;;;;7.07;4.80;;;;;;;13.39;100.00;100435.09;5009540;28;20048;-72
2023/08/30 08:44:50;;;;;;;7.57;4.88;;;;;;;13.42;100.00;100428.47;5017962;28;20116;-72
2023/08/30 08:47:17;;;;;;;6.57;4.72;;;;;;;13.41;100.00;100432.19;5019972;28;20040;-72
2023/08/30 08:49:43;;;;;;;9.50;5.18;;;;;;;13.41;100.00;100437.66;5012947;28;20142;-71
2023/08/30 08:52:09;;;;;;;8.93;5.03;;;;;;;13.42;100.00;100434.78;5028501;28;20061;-71
2023/08/30 08:54:38;;;;;;;6.45;4.60;;;;;;;13.45;100.00;100434.50;5008869;28;20095;-71
2023/08/30 08:57:05;;;;;;;8.50;5.35;;;;;;;13.46;100.00;100427.19;5009553;28;20393;-72
2023/08/30 08:59:30;;;;;;;9.25;5.28;;;;;;;13.45;100.00;100425.47;5009578;28;20057;-71
2023/08/30 09:01:56;;;;;;;10.52;4.97;;;;;;;13.47;100.00;100424.28;5009159;28;20363;-71
2023/08/30 09:04:21;;;;;;;6.38;4.60;;;;;;;13.60;100.00;100431.38;5010409;28;20415;-72
2023/08/30 09:06:47;;;;;;;7.68;5.07;;;;;;;13.78;100.00;100425.06;5030513;28;20138;-71
2023/08/30 09:09:13;;;;;;;8.27;5.70;;;;;;;14.09;100.00;100421.38;5022010;28;20081;-71
2023/08/30 09:11:38;;;;;;;10.73;5.80;;;;;;;14.37;100.00;100425.94;5008925;28;20505;-71
2023/08/30 09:14:03;;;;;;;9.70;5.40;;;;;;;14.52;100.00;100424.50;5023752;28;20130;-71
2023/08/30 09:16:29;;;;;;;8.48;5.28;;;;;;;14.66;100.00;100422.31;5024958;28;20045;-71
2023/08/30 09:19:02;;;;;;;8.63;5.32;;;;;;;14.89;100.00;100415.47;5007868;28;20041;-71
2023/08/30 09:21:28;;;;;;;9.75;6.20;;;;;;;15.21;100.00;100415.06;5009772;28;20044;-72
2023/08/30 09:24:01;;;;;;;7.72;5.15;;;;;;;15.36;100.00;100406.34;5009859;28;20027;-72
2023/08/30 09:26:31;;;;;;;7.15;5.20;;;;;;;15.38;100.00;100421.59;5009855;28;20508;-71
2023/08/30 09:29:04;;;;;;;6.25;4.72;;;;;;;15.30;100.00;100427.00;5017289;28;20473;-71
2023/08/30 09:31:37;;;;;;;9.32;5.13;;;;;;;15.21;100.00;100438.88;5025713;28;20527;-71
2023/08/30 09:34:03;;;;;;;7.70;4.93;;;;;;;15.17;100.00;100429.22;5008331;28;20041;-72
2023/08/30 09:36:36;;;;;;;8.15;5.57;;;;;;;15.19;100.00;100424.44;5009586;28;20152;-71
2023/08/30 09:39:06;;;;;;;7.18;5.68;;;;;;;15.27;100.00;100416.31;5009598;28;20449;-71
2023/08/30 09:41:32;;;;;;;6.85;4.78;;;;;;;15.47;100.00;100426.16;5009506;28;20038;-71
2023/08/30 09:43:58;;;;;;;7.88;5.32;;;;;;;15.57;100.00;100429.72;5009141;28;20103;-71
2023/08/30 09:46:24;;;;;;;6.63;5.30;;;;;;;15.59;100.00;100421.34;5008973;28;20049;-71
2023/08/30 09:48:50;;;;;;;6.57;5.32;;;;;;;15.61;100.00;100430.25;5009108;28;20029;-71
2023/08/30 09:51:18;;;;;;;7.15;5.30;;;;;;;15.63;100.00;100417.28;5009091;28;20029;-71
2023/08/30 09:53:47;;;;;;;7.55;6.30;;;;;;;15.71;100.00;100428.34;5007689;28;20470;-71
2023/08/30 09:56:14;;;;;;;9.05;5.75;;;;;;;15.95;100.00;100424.16;5007859;28;20066;-71
2023/08/30 09:58:40;;;;;;;9.70;7.05;;;;;;;16.29;100.00;100418.81;5009011;28;20195;-71
2023/08/30 10:01:07;;;;;;;9.10;6.28;;;;;;;16.59;100.00;100417.50;5008638;28;20065;-72
2023/08/30 10:03:35;;;;;;;8.90;6.95;;;;;;;16.71;100.00;100418.09;5021052;28;20041;-71
2023/08/30 10:06:04;;;;;;;11.20;7.60;;;;;;;16.80;100.00;100414.41;5022533;28;20026;-71
2023/08/30 10:08:31;;;;;;;7.93;6.47;;;;;;;16.93;100.00;100416.75;5013049;28;20531;-70
2023/08/30 10:10:58;;;;;;;10.68;7.57;;;;;;;17.11;100.00;100414.75;5008807;28;20046;-71
2023/08/30 10:13:25;;;;;;;10.57;7.50;;;;;;;17.39;100.00;100415.38;5008790;28;20497;-71
2023/08/30 10:15:58;;;;;;;10.00;8.20;;;;;;;17.71;100.00;100414.63;5024744;28;20128;-71
2023/08/30 10:18:28;;;;;;;9.25;7.57;;;;;;;18.09;99.59;100407.72;5009238;28;20494;-72
2023/08/30 10:20:54;;;;;;;11.23;7.60;;;;;;;18.32;98.07;100409.75;5022256;28;20040;-72
2023/08/30 10:23:21;;;;;;;9.88;7.43;;;;;;;18.44;95.40;100408.41;5028944;28;20044;-72
2023/08/30 10:25:49;;;;;;;8.18;7.20;;;;;;;18.38;91.82;100409.09;5012933;28;20036;-70
2023/08/30 10:28:16;;;;;;;8.30;7.10;;;;;;;18.46;93.26;100411.81;5019346;28;20083;-72
2023/08/30 10:30:42;;;;;;;7.70;6.65;;;;;;;18.46;90.63;100402.69;5008635;28;20562;-71
2023/08/30 10:33:14;;;;;;;7.88;6.50;;;;;;;18.33;91.33;100397.75;5023641;28;20057;-72
2023/08/30 10:35:52;;;;;;;8.02;6.65;;;;;;;18.20;91.63;100386.38;5014127;28;20038;-72
2023/08/30 10:38:28;;;;;;;10.40;6.55;;;;;;;18.17;93.11;100401.34;5012284;28;20057;-71
2023/08/30 10:40:54;;;;;;;9.02;5.85;;;;;;;18.10;92.25;100392.91;5028093;28;20374;-71
2023/08/30 10:43:30;;;;;;;8.88;6.55;;;;;;;18.16;91.81;100391.34;5028797;28;20021;-71
2023/08/30 10:46:03;;;;;;;7.20;5.80;;;;;;;18.39;91.90;100394.28;5010083;28;20797;-71
2023/08/30 10:48:39;;;;;;;9.10;5.82;;;;;;;18.63;91.63;100389.78;5007432;28;20037;-72
2023/08/30 10:51:19;;;;;;;7.65;5.65;;;;;;;18.63;88.90;100393.41;5007972;28;20116;-71
2023/08/30 10:53:55;;;;;;;9.85;5.28;;;;;;;18.53;88.88;100401.00;5008069;28;20116;-71
2023/08/30 10:56:30;;;;;;;6.18;4.47;;;;;;;18.46;88.46;100394.44;5008737;28;20477;-71
2023/08/30 10:58:56;;;;;;;6.78;5.25;;;;;;;18.38;88.52;100398.06;5006585;28;20143;-71
2023/08/30 11:01:22;;;;;;;5.63;4.60;;;;;;;18.30;87.99;100403.59;5008425;28;20494;-71
2023/08/30 11:03:50;;;;;;;8.05;5.57;;;;;;;18.23;88.60;100397.91;5006280;28;20046;-71
2023/08/30 11:06:17;;;;;;;6.68;5.80;;;;;;;18.25;87.85;100393.06;5007715;28;20052;-71
2023/08/30 11:08:43;;;;;;;7.72;5.90;;;;;;;18.23;88.75;100389.66;5008032;28;20136;-72
2023/08/30 11:11:11;;;;;;;9.60;6.25;;;;;;;18.20;89.43;100381.72;5008237;28;20076;-71